Time;durP1;ratioP1;P1;durP2;ratioP2;P2;SDS_P1;SDS_P2;PMS_P1;PMS_P2;Temp;Humidity;BMP_temperature;BMP_pressure;BME280_temperature;BME280_humidity;BME280_pressure;Samples;Min_cycle;Max_cycle;Signal;HPM_P1;HPM_P2
2022/05/31 00:03:05;;;;;;;0.10;0.10;;;13.80;99.90;;;12.34;75.25;100065.72;10222575;28;96781;-88
2022/05/31 00:08:09;;;;;;;0.17;0.10;;;13.70;99.90;;;12.23;75.51;100068.81;10253315;28;96574;-88
2022/05/31 00:13:12;;;;;;;0.30;0.20;;;13.60;99.90;;;12.03;76.11;100066.66;10266908;28;97239;-87
2022/05/31 00:18:15;;;;;;;0.27;0.10;;;13.40;99.90;;;11.86;77.11;100067.81;10255892;28;96957;-88
2022/05/31 00:23:20;;;;;;;0.30;0.30;;;13.20;99.90;;;11.73;77.91;100062.25;10242313;28;96673;-88
2022/05/31 00:28:24;;;;;;;0.10;0.10;;;13.00;99.90;;;11.63;78.51;100062.47;10252153;28;97428;-89
2022/05/31 00:33:27;;;;;;;0.20;0.10;;;12.90;99.90;;;11.62;78.66;100070.66;10264387;28;97526;-88
2022/05/31 00:38:30;;;;;;;0.10;0.00;;;12.90;99.90;;;11.63;78.60;100066.97;10234777;28;96852;-89
2022/05/31 00:43:33;;;;;;;0.13;0.10;;;13.00;99.90;;;11.56;78.62;100084.66;10273169;28;96558;-88
2022/05/31 00:48:55;;;;;;;0.40;0.30;;;12.90;99.90;;;11.51;78.78;100079.84;10267763;28;96796;-88
2022/05/31 00:54:03;;;;;;;0.10;0.00;;;12.90;99.90;;;11.52;78.89;100082.38;10259142;28;96665;-88
2022/05/31 00:59:19;;;;;;;0.20;0.20;;;12.80;99.90;;;11.58;78.92;100090.66;10215557;28;97334;-88
2022/05/31 01:04:57;;;;;;;0.00;0.00;;;12.90;99.90;;;11.59;78.68;100093.13;10244875;28;97254;-88
2022/05/31 01:10:04;;;;;;;0.10;0.10;;;12.90;99.90;;;11.58;78.41;100093.31;10231018;28;96777;-88
2022/05/31 01:15:09;;;;;;;0.10;0.00;;;12.90;99.90;;;11.53;78.50;100086.69;10278252;28;98187;-88
2022/05/31 01:20:17;;;;;;;0.00;0.00;;;12.90;99.90;;;11.50;78.39;100105.66;10280898;28;97568;-88
2022/05/31 01:25:39;;;;;;;0.17;0.00;;;13.00;99.90;;;11.46;78.48;100109.69;10242559;28;96682;-88
2022/05/31 01:31:09;;;;;;;0.10;0.10;;;12.90;99.90;;;11.35;78.35;100120.72;10268125;28;96941;-88
2022/05/31 01:36:20;;;;;;;0.13;0.07;;;12.80;99.90;;;11.25;78.24;100136.06;10266785;28;96650;-88
2022/05/31 01:41:34;;;;;;;0.00;0.00;;;12.70;99.90;;;11.11;78.58;100142.13;10253682;28;96615;-88
2022/05/31 01:46:37;;;;;;;0.10;0.10;;;12.60;99.90;;;10.96;78.87;100140.16;10278540;28;97364;-87
2022/05/31 01:51:42;;;;;;;0.10;0.10;;;12.40;99.90;;;10.83;79.05;100144.38;10265362;28;96635;-88
2022/05/31 01:56:51;;;;;;;0.07;0.07;;;12.30;99.90;;;10.73;79.54;100139.22;10277453;28;96582;-88
2022/05/31 02:01:56;;;;;;;0.17;0.13;;;12.20;99.90;;;10.68;79.75;100141.59;10283675;28;97812;-88
2022/05/31 02:07:16;;;;;;;0.00;0.00;;;12.10;99.90;;;10.63;79.63;100141.28;10272820;28;96665;-88
2022/05/31 02:12:22;;;;;;;0.07;0.07;;;12.10;99.90;;;10.56;80.42;100142.94;10286457;28;97134;-88
2022/05/31 02:17:25;;;;;;;0.30;0.30;;;12.00;99.90;;;10.53;80.74;100145.94;10240557;28;96827;-89
2022/05/31 02:22:30;;;;;;;0.53;0.20;;;12.00;99.90;;;10.51;80.93;100134.66;10290257;28;96690;-88
2022/05/31 02:27:33;;;;;;;0.43;0.30;;;12.00;99.90;;;10.47;80.99;100147.44;10266994;28;96573;-88
2022/05/31 02:32:37;;;;;;;0.20;0.20;;;11.90;99.90;;;10.41;81.05;100142.78;10282494;28;98249;-88
2022/05/31 02:37:40;;;;;;;0.57;0.40;;;11.90;99.90;;;10.32;81.19;100141.97;10263456;28;96928;-88
2022/05/31 02:42:43;;;;;;;0.10;0.10;;;11.80;99.90;;;10.27;81.03;100154.09;10281468;28;96597;-88
2022/05/31 02:47:46;;;;;;;0.87;0.30;;;11.70;99.90;;;10.23;81.41;100158.91;10284325;28;96563;-88
2022/05/31 02:52:48;;;;;;;0.20;0.17;;;11.70;99.90;;;10.16;81.31;100153.41;10281113;28;96600;-88
2022/05/31 02:57:51;;;;;;;0.50;0.27;;;11.60;99.90;;;10.09;81.15;100157.72;10284280;28;96555;-88
2022/05/31 03:02:54;;;;;;;0.47;0.27;;;11.50;99.90;;;10.02;81.52;100154.06;10271842;28;96610;-89
2022/05/31 03:07:58;;;;;;;0.10;0.10;;;11.50;99.90;;;9.94;81.33;100159.34;10259020;28;96641;-87
2022/05/31 03:13:02;;;;;;;0.30;0.30;;;11.40;99.90;;;9.87;81.55;100164.50;10272491;28;96647;-88
2022/05/31 03:18:14;;;;;;;0.70;0.17;;;11.30;99.90;;;9.84;81.82;100164.84;10250061;28;96681;-88
2022/05/31 03:23:35;;;;;;;0.40;0.40;;;11.30;99.90;;;9.83;82.42;100154.38;10265263;28;96829;-87
2022/05/31 03:28:38;;;;;;;0.00;0.00;;;11.20;99.90;;;9.85;82.55;100150.56;10236436;28;96617;-87
2022/05/31 03:33:41;;;;;;;0.10;0.00;;;11.20;99.90;;;9.91;82.98;100160.53;10242955;28;96673;-87
2022/05/31 03:38:45;;;;;;;0.30;0.30;;;11.30;99.90;;;9.98;83.25;100150.09;10268252;28;98396;-89
2022/05/31 03:43:48;;;;;;;0.00;0.00;;;11.30;99.90;;;10.06;83.74;100146.59;10252777;28;96521;-88
2022/05/31 03:48:51;;;;;;;0.27;0.10;;;11.40;99.90;;;10.22;84.21;100151.09;10282935;28;98124;-88
2022/05/31 03:53:54;;;;;;;0.97;0.33;;;11.50;99.90;;;10.36;84.17;100147.78;10253091;28;96714;-88
2022/05/31 03:58:57;;;;;;;0.53;0.40;;;11.70;99.90;;;10.50;83.87;100149.75;10242576;28;98788;-88
2022/05/31 04:04:03;;;;;;;0.70;0.50;;;11.80;99.90;;;10.65;83.79;100157.88;10248898;28;96846;-89
2022/05/31 04:09:06;;;;;;;0.07;0.07;;;12.00;99.90;;;10.78;83.96;100160.81;10263940;28;96716;-88
2022/05/31 04:14:09;;;;;;;0.03;0.00;;;12.10;99.90;;;10.92;84.01;100168.09;10273692;28;96768;-88
2022/05/31 04:19:12;;;;;;;0.33;0.20;;;12.20;99.90;;;11.08;83.89;100167.22;10276170;28;98378;-88
2022/05/31 04:24:16;;;;;;;0.10;0.10;;;12.40;99.90;;;11.24;83.83;100168.97;10255310;28;98308;-88
2022/05/31 04:29:20;;;;;;;0.00;0.00;;;12.50;99.90;;;11.42;83.55;100163.41;10276395;28;96476;-88
2022/05/31 04:34:23;;;;;;;0.10;0.10;;;12.70;99.90;;;11.56;82.95;100157.34;10254673;28;96715;-88
2022/05/31 04:39:27;;;;;;;0.20;0.20;;;12.80;99.90;;;11.63;81.94;100168.94;10246283;28;96674;-88
2022/05/31 04:44:30;;;;;;;0.10;0.10;;;12.90;99.90;;;11.79;82.26;100168.03;10282649;28;96881;-88
2022/05/31 04:49:33;;;;;;;0.00;0.00;;;13.00;99.90;;;11.94;82.05;100171.63;10238739;28;98530;-87
2022/05/31 04:54:36;;;;;;;0.20;0.10;;;13.20;99.90;;;12.03;81.20;100170.53;10253238;28;97179;-88
2022/05/31 04:59:39;;;;;;;0.00;0.00;;;13.30;99.90;;;12.14;81.22;100157.81;10255178;28;96560;-88
2022/05/31 05:04:42;;;;;;;0.00;0.00;;;13.40;99.90;;;12.30;80.93;100171.84;10272629;28;98108;-88
2022/05/31 05:09:46;;;;;;;0.20;0.20;;;13.50;99.90;;;12.47;80.67;100164.50;10242537;28;98456;-88
2022/05/31 05:14:49;;;;;;;0.57;0.40;;;13.70;99.90;;;12.62;80.21;100169.06;10268835;28;96598;-87
2022/05/31 05:19:52;;;;;;;0.60;0.40;;;13.80;99.90;;;12.77;80.08;100159.22;10268307;28;97811;-87
2022/05/31 05:24:55;;;;;;;0.40;0.20;;;14.00;99.90;;;12.99;79.45;100160.16;10225547;28;97277;-88
2022/05/31 05:35:19;;;;;;;0.40;0.40;;;14.30;99.90;;;13.35;78.35;100163.72;10252858;28;97462;-87
2022/05/31 05:40:23;;;;;;;0.57;0.40;;;14.60;99.90;;;13.57;77.94;100147.78;10222244;28;98325;-87
2022/05/31 05:45:26;;;;;;;0.52;0.40;;;14.80;99.90;;;13.72;77.60;100161.88;10275271;28;96578;-88
2022/05/31 05:50:29;;;;;;;1.05;0.30;;;15.00;99.90;;;13.90;77.54;100154.28;10263407;28;98514;-88
2022/05/31 05:55:34;;;;;;;0.60;0.45;;;15.10;99.90;;;14.11;76.89;100156.13;10251903;28;97000;-88
2022/05/31 06:00:46;;;;;;;0.40;0.32;;;15.30;99.90;;;14.32;76.37;100154.44;10262879;28;97602;-87
2022/05/31 06:05:51;;;;;;;0.35;0.25;;;15.50;99.90;;;14.50;75.76;100157.50;10226659;28;96647;-87
2022/05/31 06:10:56;;;;;;;0.57;0.38;;;15.70;99.90;;;14.69;75.09;100162.19;10241558;28;98381;-87
2022/05/31 06:16:07;;;;;;;0.40;0.15;;;15.90;99.90;;;14.90;74.03;100171.16;10250692;28;98467;-88
2022/05/31 06:21:12;;;;;;;0.35;0.28;;;16.10;99.90;;;15.04;72.37;100164.84;10279117;28;96737;-88
2022/05/31 06:26:18;;;;;;;2.17;0.47;;;16.20;99.90;;;15.23;72.39;100156.09;10235922;28;97868;-88
2022/05/31 06:31:21;;;;;;;0.20;0.20;;;16.40;99.90;;;15.47;71.40;100165.47;10269613;28;96782;-88
2022/05/31 06:36:24;;;;;;;0.40;0.22;;;16.60;99.90;;;15.72;69.21;100163.09;10249642;28;97801;-88
2022/05/31 06:41:27;;;;;;;0.10;0.10;;;16.90;99.90;;;15.97;68.52;100168.72;10255360;28;97075;-88
2022/05/31 06:46:30;;;;;;;0.30;0.20;;;17.10;99.90;;;16.22;67.79;100170.81;10238639;28;96671;-88
2022/05/31 06:57:01;;;;;;;0.20;0.10;;;17.50;99.90;;;16.71;64.41;100175.78;10264213;28;96948;-88
2022/05/31 07:02:05;;;;;;;0.20;0.20;;;17.80;99.90;;;16.95;64.02;100170.78;10253300;28;97980;-88
2022/05/31 07:07:07;;;;;;;0.10;0.10;;;18.10;99.90;;;17.15;62.57;100162.66;10281877;28;96691;-87
2022/05/31 07:12:11;;;;;;;0.10;0.10;;;18.30;99.80;;;17.39;61.08;100173.56;10272771;28;97522;-89
2022/05/31 07:17:14;;;;;;;0.65;0.20;;;18.50;99.00;;;17.56;59.99;100170.34;10275279;28;97330;-88
2022/05/31 07:22:17;;;;;;;0.20;0.20;;;18.70;97.20;;;17.70;59.80;100155.00;10246662;28;96896;-88
2022/05/31 07:27:20;;;;;;;0.10;0.10;;;18.90;96.80;;;17.82;56.53;100159.50;10237712;28;96599;-88
2022/05/31 07:32:23;;;;;;;0.40;0.30;;;19.00;95.30;;;18.01;57.25;100164.97;10270117;28;96599;-88
2022/05/31 07:37:46;;;;;;;0.30;0.15;;;19.20;93.60;;;18.17;56.56;100173.34;10272993;28;96564;-89
2022/05/31 07:42:50;;;;;;;0.13;0.10;;;19.40;93.30;;;18.35;55.06;100164.53;10264147;28;96647;-88
2022/05/31 07:47:53;;;;;;;0.15;0.15;;;19.60;92.50;;;18.47;53.50;100172.66;10272069;28;97933;-88
2022/05/31 07:52:59;;;;;;;0.40;0.25;;;19.70;89.60;;;18.60;53.05;100169.06;10247261;28;96668;-89
2022/05/31 08:03:26;;;;;;;0.17;0.10;;;19.90;81.40;;;18.90;51.18;100167.34;10261766;28;96624;-88
2022/05/31 08:08:29;;;;;;;0.40;0.20;;;20.10;85.10;;;19.07;49.99;100164.03;10258842;28;96680;-89
2022/05/31 08:13:40;;;;;;;0.27;0.23;;;20.30;81.10;;;19.15;48.79;100171.84;10238076;28;98294;-88
2022/05/31 08:18:45;;;;;;;0.10;0.10;;;20.40;79.30;;;19.27;49.03;100171.91;10249981;28;96667;-88
2022/05/31 08:23:48;;;;;;;0.25;0.10;;;20.50;78.80;;;19.36;47.72;100173.25;10249716;28;96863;-88
2022/05/31 08:28:51;;;;;;;0.43;0.20;;;20.60;77.50;;;19.44;47.80;100179.16;10262306;28;97432;-88
2022/05/31 08:33:55;;;;;;;0.88;0.20;;;20.70;75.90;;;19.58;47.79;100177.16;10237489;28;96591;-88
2022/05/31 08:38:58;;;;;;;0.17;0.17;;;20.80;74.50;;;19.74;48.84;100173.84;10247550;28;96683;-88
2022/05/31 08:44:18;;;;;;;0.40;0.20;;;20.90;75.80;;;19.91;48.51;100174.00;10242120;28;97017;-89
2022/05/31 09:00:46;;;;;;;0.32;0.28;;;21.50;75.20;;;20.28;48.82;100163.91;10251947;28;97165;-90
2022/05/31 09:06:12;;;;;;;0.45;0.30;;;21.60;74.80;;;20.21;47.81;100165.88;10242986;28;96637;-90
2022/05/31 09:11:32;;;;;;;0.08;0.05;;;21.50;73.20;;;20.19;48.89;100159.06;10259080;28;96807;-90
2022/05/31 09:17:02;;;;;;;0.30;0.15;;;21.50;73.80;;;20.12;48.83;100161.03;10251043;28;97261;-89
2022/05/31 09:22:07;;;;;;;1.73;0.40;;;21.50;73.50;;;20.14;48.71;100148.13;10259017;28;97211;-90
2022/05/31 09:27:19;;;;;;;0.77;0.40;;;21.50;73.00;;;20.12;48.02;100153.75;10261456;28;97039;-88
2022/05/31 09:32:43;;;;;;;0.65;0.35;;;21.50;72.30;;;20.07;47.75;100150.13;10246641;28;98478;-90
2022/05/31 09:38:00;;;;;;;1.73;0.88;;;21.40;71.20;;;20.22;48.79;100143.25;10241146;28;96836;-81
2022/05/31 09:43:25;;;;;;;0.47;0.30;;;21.40;72.60;;;20.52;48.21;100145.06;10244499;28;96792;-81
2022/05/31 09:48:29;;;;;;;0.93;0.50;;;21.70;72.00;;;20.48;47.44;100138.47;10259658;28;96635;-83
2022/05/31 09:59:11;;;;;;;0.30;0.30;;;21.70;72.20;;;20.56;48.39;100130.84;10250898;28;96699;-82
2022/05/31 10:04:23;;;;;;;0.38;0.38;;;21.80;71.50;;;20.84;48.36;100116.63;10251527;28;97124;-82
2022/05/31 10:09:48;;;;;;;1.05;0.95;;;22.00;71.30;;;21.40;48.30;100114.25;10257287;28;96801;-82
2022/05/31 10:14:53;;;;;;;;;;;22.40;71.10;;;21.95;47.33;100116.38;10242536;28;96818;-82
2022/05/31 10:20:12;;;;;;;0.63;0.38;;;23.00;71.10;;;22.07;44.73;100117.13;10244302;28;96714;-83
2022/05/31 10:25:47;;;;;;;0.40;0.30;;;23.20;66.90;;;22.44;45.42;100108.53;10254045;28;97582;-82
2022/05/31 10:31:20;;;;;;;0.60;0.40;;;23.50;68.80;;;22.79;44.61;100108.22;10253858;28;96626;-81
2022/05/31 10:36:47;;;;;;;0.75;0.52;;;23.80;67.60;;;23.18;44.54;100105.47;10256749;28;97472;-81
2022/05/31 10:41:54;;;;;;;0.47;0.25;;;24.20;66.90;;;23.42;42.34;100108.72;10241041;28;98816;-81
2022/05/31 10:47:16;;;;;;;1.23;0.50;;;24.50;65.20;;;23.47;41.67;100106.06;10248118;28;97336;-83
2022/05/31 10:52:35;;;;;;;0.98;0.32;;;24.70;63.50;;;23.50;42.81;100097.41;10262984;28;97345;-82
2022/05/31 10:58:30;;;;;;;1.37;0.50;;;24.70;63.80;;;23.60;42.55;100089.38;10235021;28;97358;-82
2022/05/31 11:04:28;;;;;;;1.70;0.55;;;24.80;63.10;;;23.59;42.00;100100.50;10228484;28;97259;-83
2022/05/31 11:16:02;;;;;;;2.60;0.40;;;24.90;61.70;;;23.84;41.89;100086.38;10223567;28;98513;-83
2022/05/31 11:21:21;;;;;;;0.20;0.20;;;25.10;62.00;;;23.85;41.61;100088.84;10264604;28;97295;-84
2022/05/31 11:27:03;;;;;;;0.35;0.32;;;25.10;61.10;;;23.42;41.08;100089.75;10285968;28;96687;-81
2022/05/31 11:32:38;;;;;;;0.65;0.40;;;24.90;60.80;;;23.05;41.56;100082.28;10265711;28;96691;-82
2022/05/31 11:38:12;;;;;;;1.02;0.60;;;24.50;60.80;;;22.65;43.20;100077.94;10238506;28;96915;-81
2022/05/31 11:43:41;;;;;;;0.98;0.80;;;24.10;61.50;;;22.76;43.25;100072.66;10259414;28;96977;-80
2022/05/31 11:49:01;;;;;;;0.80;0.75;;;24.10;61.30;;;23.18;44.24;100067.53;10263650;28;96593;-83
2022/05/31 11:54:30;;;;;;;0.70;0.30;;;24.30;63.00;;;23.73;43.52;100056.44;10232862;28;96885;-82
2022/05/31 11:59:48;;;;;;;1.05;0.60;;;24.80;62.60;;;23.86;40.54;100057.09;10248223;28;97428;-90
2022/05/31 12:05:36;;;;;;;0.43;0.32;;;25.00;60.40;;;23.65;41.27;100062.34;10242157;28;97162;-90
2022/05/31 12:10:51;;;;;;;1.25;0.30;;;24.90;60.80;;;23.68;41.83;100053.69;10229000;28;96915;-89
2022/05/31 12:15:55;;;;;;;0.30;0.20;;;25.00;61.00;;;24.03;41.20;100044.19;10232717;28;96701;-90
2022/05/31 12:21:18;;;;;;;1.02;0.55;;;25.20;60.10;;;24.23;40.46;100033.50;10250478;28;96604;-90
2022/05/31 12:26:41;;;;;;;1.33;0.52;;;25.40;59.40;;;24.37;40.57;100027.63;10265140;28;96509;-90
2022/05/31 12:31:44;;;;;;;1.63;0.55;;;25.60;59.10;;;24.34;40.55;100025.41;10251887;28;96873;-88
2022/05/31 12:37:11;;;;;;;1.58;0.40;;;25.60;58.70;;;24.38;39.83;100019.22;10251011;28;97325;-89
2022/05/31 12:42:14;;;;;;;0.45;0.40;;;25.70;57.80;;;24.63;40.11;100021.25;10268533;28;96639;-89
2022/05/31 12:47:34;;;;;;;0.73;0.50;;;25.90;58.50;;;24.58;38.77;100002.19;10248252;28;98040;-89
2022/05/31 12:53:44;;;;;;;1.77;0.70;;;25.90;56.70;;;24.70;39.97;100002.78;10225318;28;96642;-90
2022/05/31 12:58:31;;;;;;;;;;;25.90;57.60;;;24.87;39.38;99999.88;10257293;28;96698;-90
2022/05/31 13:03:34;;;;;;;1.10;0.50;;;26.10;57.50;;;24.94;38.24;99988.75;10230488;28;97307;-89
2022/05/31 13:08:54;;;;;;;0.30;0.20;;;26.20;55.90;;;24.79;38.41;99993.06;10246578;28;96598;-89
2022/05/31 13:19:41;;;;;;;1.20;0.55;;;26.00;57.10;;;24.84;37.90;99989.53;10238492;28;97044;-90
2022/05/31 13:25:04;;;;;;;0.50;0.40;;;26.10;54.30;;;25.03;39.19;99976.28;10212666;28;96649;-89
2022/05/31 13:30:15;;;;;;;0.30;0.28;;;26.20;56.70;;;25.25;37.73;99968.72;10233369;28;96639;-88
2022/05/31 13:35:26;;;;;;;0.82;0.60;;;26.50;56.10;;;25.35;38.14;99968.72;10286973;28;96717;-89
2022/05/31 13:40:34;;;;;;;0.65;0.57;;;26.60;55.90;;;25.26;37.60;99961.38;10236905;28;96514;-89
2022/05/31 13:45:38;;;;;;;0.95;0.60;;;26.60;55.30;;;25.25;38.18;99963.28;10270361;28;96652;-90
2022/05/31 13:51:05;;;;;;;0.95;0.50;;;26.60;55.00;;;25.58;37.98;99959.22;10285928;28;96702;-90
2022/05/31 13:56:30;;;;;;;0.57;0.38;;;26.80;54.80;;;25.75;37.12;99956.25;10258518;28;97436;-89
2022/05/31 14:01:47;;;;;;;0.88;0.60;;;27.10;54.80;;;25.49;37.30;99952.69;10263717;28;97126;-90
2022/05/31 14:06:51;;;;;;;2.47;1.23;;;26.90;54.50;;;24.98;37.37;99947.16;10232746;28;98248;-89
2022/05/31 14:12:07;;;;;;;6.28;0.40;;;26.50;54.50;;;24.93;38.65;99943.63;10206438;28;96606;-90
2022/05/31 14:17:41;;;;;;;1.35;0.30;;;26.30;55.40;;;24.91;38.77;99945.81;10230151;28;96735;-90
2022/05/31 14:22:45;;;;;;;0.73;0.20;;;26.30;55.40;;;24.95;39.02;99939.56;10186499;28;96824;-90
2022/05/31 14:27:48;;;;;;;0.43;0.20;;;26.30;55.50;;;24.67;38.85;99935.41;10270875;28;98379;-92
2022/05/31 14:32:51;;;;;;;0.32;0.32;;;26.10;55.50;;;24.35;39.62;99927.44;10255634;28;96599;-88
2022/05/31 14:37:54;;;;;;;2.15;0.60;;;25.80;55.80;;;24.01;40.53;99929.66;10250057;28;96673;-88
2022/05/31 14:43:09;;;;;;;1.20;0.63;;;25.50;56.20;;;23.65;40.82;99920.47;10271259;28;97492;-90
2022/05/31 14:48:36;;;;;;;1.27;0.75;;;25.10;56.60;;;23.34;41.29;99927.53;10250123;28;96994;-89
2022/05/31 14:53:43;;;;;;;1.10;0.85;;;24.80;57.00;;;23.16;42.60;99920.59;10271902;28;96721;-89
2022/05/31 14:58:51;;;;;;;1.15;1.00;;;24.60;58.00;;;23.13;42.93;99921.91;10256299;28;96643;-92
2022/05/31 15:04:04;;;;;;;0.88;0.70;;;24.50;58.40;;;23.39;42.70;99906.72;10271996;28;96826;-92
2022/05/31 15:09:27;;;;;;;0.70;0.60;;;24.60;58.60;;;23.75;42.25;99893.44;10265833;28;97420;-92
2022/05/31 15:19:53;;;;;;;0.77;0.50;;;25.40;58.60;;;24.82;40.50;99889.25;10274167;28;98408;-92
2022/05/31 15:24:57;;;;;;;0.85;0.60;;;25.90;57.90;;;25.11;40.33;99886.03;10261897;28;96604;-91
2022/05/31 15:30:00;;;;;;;2.17;0.52;;;26.30;57.40;;;25.23;38.91;99872.19;10253002;28;96656;-89
2022/05/31 15:35:06;;;;;;;0.80;0.50;;;26.60;56.10;;;25.22;38.41;99873.28;10260391;28;96671;-90
2022/05/31 15:40:26;;;;;;;0.90;0.63;;;26.60;55.60;;;25.40;38.80;99883.59;10247060;28;96960;-89
2022/05/31 15:45:29;;;;;;;0.30;0.20;;;26.70;55.90;;;25.46;37.67;99879.78;10258854;28;97532;-89
2022/05/31 15:50:33;;;;;;;0.73;0.40;;;26.80;55.10;;;25.72;38.58;99885.19;10223163;28;98426;-89
2022/05/31 15:55:38;;;;;;;0.85;0.40;;;26.90;54.40;;;25.88;37.56;99886.81;10254558;28;98629;-90
2022/05/31 16:00:42;;;;;;;0.52;0.10;;;27.10;54.60;;;25.83;37.37;99887.63;10257392;28;96733;-90
2022/05/31 16:05:45;;;;;;;0.88;0.57;;;27.10;54.50;;;25.42;37.40;99886.03;10254618;28;96636;-89
2022/05/31 16:10:48;;;;;;;0.15;0.10;;;26.80;54.20;;;24.92;37.83;99884.91;10226380;28;96838;-89
2022/05/31 16:15:51;;;;;;;0.68;0.40;;;26.40;54.50;;;24.54;38.75;99881.59;10219659;28;96506;-90
2022/05/31 16:20:54;;;;;;;1.17;0.10;;;26.00;54.80;;;24.20;38.85;99881.16;10269406;28;97231;-89
2022/05/31 16:25:58;;;;;;;0.28;0.28;;;25.60;54.60;;;24.30;39.46;99882.03;10255304;28;98711;-91
2022/05/31 16:31:01;;;;;;;0.17;0.17;;;25.60;55.50;;;24.32;38.70;99875.50;10231682;28;97265;-89
2022/05/31 16:36:22;;;;;;;0.10;0.10;;;25.60;55.00;;;24.24;40.34;99876.84;10220862;28;98507;-90
2022/05/31 16:41:26;;;;;;;2.13;0.20;;;25.50;56.10;;;24.18;40.05;99877.91;10248906;28;98268;-91
2022/05/31 16:46:30;;;;;;;0.22;0.20;;;25.50;56.10;;;24.19;41.11;99880.34;10236138;28;99173;-90
2022/05/31 16:51:42;;;;;;;0.20;0.17;;;25.40;56.90;;;24.21;40.99;99872.75;10230989;28;96739;-90
2022/05/31 16:57:05;;;;;;;0.20;0.10;;;25.40;56.70;;;24.18;40.88;99867.84;10261658;28;97334;-90
2022/05/31 17:02:08;;;;;;;0.20;0.10;;;25.40;56.70;;;24.15;40.92;99879.22;10238748;28;97054;-90
2022/05/31 17:18:06;;;;;;;0.85;0.20;;;25.30;57.10;;;23.62;41.94;99883.81;10269210;28;98373;-91
2022/05/31 17:23:20;;;;;;;0.63;0.20;;;25.00;57.30;;;23.33;42.45;99886.06;10238885;28;96604;-92
2022/05/31 17:28:23;;;;;;;0.52;0.20;;;24.80;57.70;;;23.17;42.90;99885.09;10269014;28;98271;-91
2022/05/31 17:33:28;;;;;;;0.13;0.13;;;24.60;58.20;;;23.03;43.42;99888.47;10240144;28;97688;-88
2022/05/31 17:38:38;;;;;;;0.15;0.10;;;24.40;58.50;;;22.84;44.19;99885.28;10283014;28;98320;-90
2022/05/31 17:43:41;;;;;;;0.17;0.17;;;24.20;58.90;;;22.66;44.22;99886.47;10286064;28;96658;-90
2022/05/31 17:48:44;;;;;;;0.30;0.20;;;24.10;59.70;;;22.46;44.44;99895.19;10248029;28;96624;-90
2022/05/31 17:53:50;;;;;;;0.20;0.20;;;23.90;59.50;;;22.26;45.46;99895.78;10257287;28;96882;-90
2022/05/31 17:58:56;;;;;;;1.45;0.17;;;23.60;60.40;;;22.07;45.99;99897.09;10275652;28;96528;-90
2022/05/31 18:04:00;;;;;;;0.40;0.22;;;23.50;61.00;;;21.87;46.38;99897.66;10263951;28;96736;-90
2022/05/31 18:09:12;;;;;;;0.32;0.10;;;23.30;61.20;;;21.64;47.25;99917.59;10233504;28;98264;-90
2022/05/31 18:14:15;;;;;;;0.20;0.20;;;23.00;62.00;;;21.43;47.77;99908.38;10243732;28;96822;-90
2022/05/31 18:19:18;;;;;;;0.20;0.20;;;22.80;63.40;;;21.19;48.66;99917.66;10251828;28;96680;-90
2022/05/31 18:24:35;;;;;;;0.25;0.13;;;22.50;63.70;;;20.95;49.39;99917.78;10236003;28;97191;-90
2022/05/31 18:29:50;;;;;;;0.60;0.40;;;22.30;64.90;;;20.73;49.91;99911.41;10254000;28;96695;-90
2022/05/31 18:34:59;;;;;;;1.25;0.40;;;22.10;65.80;;;20.48;51.17;99915.28;10236340;28;98988;-91
2022/05/31 18:45:17;;;;;;;0.77;0.40;;;21.60;67.70;;;19.99;52.56;99922.84;10264206;28;97243;-91
2022/05/31 18:50:20;;;;;;;0.57;0.30;;;21.30;68.40;;;19.74;53.33;99933.88;10263997;28;96560;-91
2022/05/31 18:55:31;;;;;;;0.43;0.28;;;21.10;69.10;;;19.55;54.30;99931.47;10267979;28;96826;-91
2022/05/31 19:00:35;;;;;;;0.22;0.20;;;20.90;70.00;;;19.40;55.14;99932.75;10251993;28;96595;-92
2022/05/31 19:05:39;;;;;;;0.30;0.30;;;20.70;71.50;;;19.26;55.67;99936.72;10238449;28;96603;-91
2022/05/31 19:10:45;;;;;;;0.70;0.30;;;20.60;71.60;;;19.14;56.75;99943.97;10237691;28;96592;-93
2022/05/31 19:15:50;;;;;;;0.13;0.13;;;20.50;72.10;;;19.06;56.73;99952.34;10241036;28;98650;-93
2022/05/31 19:20:57;;;;;;;0.52;0.20;;;20.40;73.10;;;18.96;57.64;99963.69;10256126;28;96716;-91
2022/05/31 19:26:01;;;;;;;0.70;0.40;;;20.30;73.70;;;18.84;58.54;99954.75;10259966;28;96731;-91
2022/05/31 19:31:10;;;;;;;1.17;0.10;;;20.20;75.00;;;18.72;59.40;99965.44;10259051;28;97724;-90
2022/05/31 19:36:14;;;;;;;0.75;0.47;;;20.00;74.80;;;18.65;60.17;99967.34;10277473;28;96680;-90
2022/05/31 19:41:27;;;;;;;1.70;0.20;;;19.90;75.10;;;18.59;61.19;99971.78;10298271;28;96345;-90
2022/05/31 19:46:30;;;;;;;0.45;0.30;;;19.90;75.30;;;18.55;61.26;99967.09;10305420;28;96499;-90
2022/05/31 19:51:33;;;;;;;0.40;0.40;;;19.90;76.20;;;18.46;61.25;99970.06;10315065;28;96495;-90
2022/05/31 19:56:37;;;;;;;0.30;0.30;;;19.80;78.70;;;18.31;62.26;99966.13;10283118;28;96663;-89
2022/05/31 20:01:40;;;;;;;0.77;0.40;;;19.60;78.50;;;18.17;63.16;99970.78;10255943;28;96817;-90
2022/05/31 20:06:43;;;;;;;0.68;0.40;;;19.50;79.20;;;18.08;63.55;99964.09;10252501;28;98466;-90
2022/05/31 20:11:47;;;;;;;0.85;0.60;;;19.40;82.20;;;17.98;63.81;99969.97;10219935;28;96677;-90
2022/05/31 20:16:51;;;;;;;1.20;0.35;;;19.30;83.40;;;17.82;64.60;99957.94;10247097;28;96581;-90
2022/05/31 20:21:55;;;;;;;0.88;0.43;;;19.10;84.80;;;17.65;64.97;99968.38;10258624;28;96587;-90
2022/05/31 20:26:58;;;;;;;0.98;0.60;;;18.90;85.60;;;17.49;65.47;99968.09;10221452;28;98193;-90
2022/05/31 20:32:02;;;;;;;1.83;0.70;;;18.70;85.90;;;17.31;66.10;99961.59;10234846;28;96625;-90
2022/05/31 20:37:12;;;;;;;0.80;0.52;;;18.60;88.20;;;17.13;66.44;99969.56;10235273;28;96730;-90
2022/05/31 20:42:22;;;;;;;1.13;0.50;;;18.40;88.70;;;16.98;67.04;99961.81;10241173;28;97581;-90
2022/05/31 20:47:25;;;;;;;0.40;0.40;;;18.30;89.50;;;16.84;67.88;99963.72;10222173;28;99241;-90
2022/05/31 20:52:33;;;;;;;0.60;0.60;;;18.10;91.40;;;16.70;68.16;99961.31;10249356;28;97007;-89
2022/05/31 20:57:36;;;;;;;0.30;0.28;;;17.90;92.40;;;16.52;68.88;99970.06;10257847;28;97547;-90
2022/05/31 21:02:43;;;;;;;1.60;0.32;;;17.80;94.10;;;16.36;69.60;99974.00;10256370;28;96614;-90
2022/05/31 21:07:48;;;;;;;1.15;0.75;;;17.60;95.60;;;16.24;69.87;99975.69;10238734;28;96881;-89
2022/05/31 21:12:51;;;;;;;0.73;0.50;;;17.50;96.00;;;16.10;70.43;99977.59;10264021;28;96848;-90
2022/05/31 21:17:55;;;;;;;0.47;0.40;;;17.40;98.10;;;15.98;71.36;99981.94;10265428;28;96733;-90
2022/05/31 21:23:00;;;;;;;0.45;0.40;;;17.20;99.90;;;15.86;71.73;99981.75;10232405;28;96830;-90
2022/05/31 21:28:15;;;;;;;0.98;0.43;;;17.10;99.90;;;15.76;72.28;99981.34;10265698;28;96507;-90
2022/05/31 21:33:19;;;;;;;0.47;0.30;;;17.00;99.90;;;15.68;72.49;99987.72;10242204;28;96705;-90
2022/05/31 21:38:31;;;;;;;0.55;0.25;;;16.90;99.90;;;15.63;72.97;99994.72;10251021;28;97503;-90
2022/05/31 21:43:40;;;;;;;0.52;0.30;;;16.90;99.90;;;15.52;73.51;99996.13;10241598;28;96588;-90
2022/05/31 21:48:43;;;;;;;0.50;0.38;;;16.80;99.90;;;15.42;74.37;99993.06;10259828;28;96562;-89
2022/05/31 21:53:49;;;;;;;0.43;0.32;;;16.70;99.90;;;15.34;74.28;100001.25;10260582;28;97503;-90
2022/05/31 21:59:00;;;;;;;1.48;0.60;;;16.60;99.90;;;15.27;74.34;100001.25;10227334;28;96611;-90
2022/05/31 22:04:04;;;;;;;0.50;0.50;;;16.50;99.90;;;15.20;75.35;99995.88;10232931;28;96853;-90
2022/05/31 22:09:08;;;;;;;1.85;0.20;;;16.50;99.90;;;15.13;75.66;100004.94;10236653;28;96510;-91
2022/05/31 22:14:14;;;;;;;0.68;0.30;;;16.40;99.90;;;15.04;75.71;100008.81;10242360;28;96585;-90
2022/05/31 22:19:17;;;;;;;0.90;0.40;;;16.30;99.90;;;14.96;76.14;99999.13;10268911;28;96825;-90
2022/05/31 22:25:12;;;;;;;0.30;0.30;;;16.20;99.90;;;14.92;76.53;100003.22;10201932;28;96834;-90
2022/05/31 22:29:46;;;;;;;0.20;0.20;;;16.20;99.90;;;14.88;76.65;99997.47;10261720;28;96643;-90